sensor_id;sensor_type;location;lat;lon;timestamp;P1;durP1;ratioP1;P2;durP2;ratioP2
59846;SDS011;45728;48.788;2.302;2023-04-24T00:01:18;8.38;;;3.63;;
59846;SDS011;45728;48.788;2.302;2023-04-24T00:03:44;5.72;;;3.03;;
59846;SDS011;45728;48.788;2.302;2023-04-24T00:06:10;8.25;;;3.80;;
59846;SDS011;45728;48.788;2.302;2023-04-24T00:08:37;7.35;;;3.60;;
59846;SDS011;45728;48.788;2.302;2023-04-24T00:11:03;5.82;;;3.15;;
59846;SDS011;45728;48.788;2.302;2023-04-24T00:13:29;4.85;;;3.00;;
59846;SDS011;45728;48.788;2.302;2023-04-24T00:15:55;6.25;;;3.47;;
59846;SDS011;45728;48.788;2.302;2023-04-24T00:18:21;7.55;;;3.03;;
59846;SDS011;45728;48.788;2.302;2023-04-24T00:20:47;6.13;;;3.53;;
59846;SDS011;45728;48.788;2.302;2023-04-24T00:23:14;7.65;;;3.25;;
59846;SDS011;45728;48.788;2.302;2023-04-24T00:25:40;8.20;;;3.50;;
59846;SDS011;45728;48.788;2.302;2023-04-24T00:28:06;10.52;;;3.45;;
59846;SDS011;45728;48.788;2.302;2023-04-24T00:30:32;8.38;;;3.28;;
59846;SDS011;45728;48.788;2.302;2023-04-24T00:32:58;8.32;;;3.58;;
59846;SDS011;45728;48.788;2.302;2023-04-24T00:35:24;4.47;;;3.10;;
59846;SDS011;45728;48.788;2.302;2023-04-24T00:37:50;8.20;;;3.08;;
59846;SDS011;45728;48.788;2.302;2023-04-24T00:40:16;17.38;;;3.58;;
59846;SDS011;45728;48.788;2.302;2023-04-24T00:42:43;9.57;;;3.28;;
59846;SDS011;45728;48.788;2.302;2023-04-24T00:45:09;6.53;;;3.08;;
59846;SDS011;45728;48.788;2.302;2023-04-24T00:47:35;8.00;;;3.08;;
59846;SDS011;45728;48.788;2.302;2023-04-24T00:50:02;9.82;;;3.47;;
59846;SDS011;45728;48.788;2.302;2023-04-24T00:52:29;6.15;;;3.03;;
59846;SDS011;45728;48.788;2.302;2023-04-24T00:54:58;9.32;;;3.50;;
59846;SDS011;45728;48.788;2.302;2023-04-24T00:57:24;8.82;;;3.67;;
59846;SDS011;45728;48.788;2.302;2023-04-24T00:59:52;7.85;;;3.47;;
59846;SDS011;45728;48.788;2.302;2023-04-24T01:02:18;7.68;;;3.40;;
59846;SDS011;45728;48.788;2.302;2023-04-24T01:04:46;7.85;;;3.15;;
59846;SDS011;45728;48.788;2.302;2023-04-24T01:07:12;5.53;;;3.20;;
59846;SDS011;45728;48.788;2.302;2023-04-24T01:09:38;6.70;;;3.25;;
59846;SDS011;45728;48.788;2.302;2023-04-24T01:12:09;9.20;;;3.60;;
59846;SDS011;45728;48.788;2.302;2023-04-24T01:14:35;10.13;;;3.88;;
59846;SDS011;45728;48.788;2.302;2023-04-24T01:17:02;7.07;;;3.35;;
59846;SDS011;45728;48.788;2.302;2023-04-24T01:19:28;12.43;;;3.85;;
59846;SDS011;45728;48.788;2.302;2023-04-24T01:21:54;8.48;;;3.53;;
59846;SDS011;45728;48.788;2.302;2023-04-24T01:26:50;10.05;;;3.58;;
59846;SDS011;45728;48.788;2.302;2023-04-24T01:29:16;7.65;;;3.20;;
59846;SDS011;45728;48.788;2.302;2023-04-24T01:31:42;6.97;;;3.35;;
59846;SDS011;45728;48.788;2.302;2023-04-24T01:34:08;11.70;;;3.72;;
59846;SDS011;45728;48.788;2.302;2023-04-24T01:36:35;7.90;;;3.47;;
59846;SDS011;45728;48.788;2.302;2023-04-24T01:39:01;11.60;;;3.45;;
59846;SDS011;45728;48.788;2.302;2023-04-24T01:41:29;9.25;;;3.00;;
59846;SDS011;45728;48.788;2.302;2023-04-24T01:43:56;7.45;;;3.30;;
59846;SDS011;45728;48.788;2.302;2023-04-24T01:46:23;6.78;;;3.63;;
59846;SDS011;45728;48.788;2.302;2023-04-24T01:48:50;8.93;;;3.15;;
59846;SDS011;45728;48.788;2.302;2023-04-24T01:51:17;8.60;;;3.45;;
59846;SDS011;45728;48.788;2.302;2023-04-24T01:53:43;8.23;;;3.35;;
59846;SDS011;45728;48.788;2.302;2023-04-24T01:56:09;10.25;;;3.35;;
59846;SDS011;45728;48.788;2.302;2023-04-24T01:58:35;8.45;;;3.45;;
59846;SDS011;45728;48.788;2.302;2023-04-24T02:01:01;7.20;;;3.45;;
59846;SDS011;45728;48.788;2.302;2023-04-24T02:03:28;9.95;;;3.00;;
59846;SDS011;45728;48.788;2.302;2023-04-24T02:05:54;9.30;;;3.00;;
59846;SDS011;45728;48.788;2.302;2023-04-24T02:08:20;9.38;;;3.35;;
59846;SDS011;45728;48.788;2.302;2023-04-24T02:10:46;7.43;;;3.13;;
59846;SDS011;45728;48.788;2.302;2023-04-24T02:13:12;8.75;;;3.97;;
59846;SDS011;45728;48.788;2.302;2023-04-24T02:15:38;8.15;;;3.50;;
59846;SDS011;45728;48.788;2.302;2023-04-24T02:18:04;6.93;;;3.05;;
59846;SDS011;45728;48.788;2.302;2023-04-24T02:20:32;9.13;;;3.08;;
59846;SDS011;45728;48.788;2.302;2023-04-24T02:22:59;9.25;;;3.20;;
59846;SDS011;45728;48.788;2.302;2023-04-24T02:25:25;6.47;;;2.97;;
59846;SDS011;45728;48.788;2.302;2023-04-24T02:27:51;8.30;;;3.22;;
59846;SDS011;45728;48.788;2.302;2023-04-24T02:30:17;7.60;;;3.30;;
59846;SDS011;45728;48.788;2.302;2023-04-24T02:32:43;8.60;;;3.17;;
59846;SDS011;45728;48.788;2.302;2023-04-24T02:35:09;6.85;;;2.95;;
59846;SDS011;45728;48.788;2.302;2023-04-24T02:37:36;9.85;;;3.08;;
59846;SDS011;45728;48.788;2.302;2023-04-24T02:40:02;8.20;;;3.50;;
59846;SDS011;45728;48.788;2.302;2023-04-24T02:42:28;7.88;;;3.40;;
59846;SDS011;45728;48.788;2.302;2023-04-24T02:44:54;6.68;;;2.72;;
59846;SDS011;45728;48.788;2.302;2023-04-24T02:47:20;7.53;;;3.00;;
59846;SDS011;45728;48.788;2.302;2023-04-24T02:49:46;11.13;;;2.70;;
59846;SDS011;45728;48.788;2.302;2023-04-24T02:52:12;7.30;;;3.25;;
59846;SDS011;45728;48.788;2.302;2023-04-24T02:54:40;8.18;;;2.97;;
59846;SDS011;45728;48.788;2.302;2023-04-24T02:57:06;16.95;;;3.83;;
59846;SDS011;45728;48.788;2.302;2023-04-24T02:59:32;8.50;;;3.00;;
59846;SDS011;45728;48.788;2.302;2023-04-24T03:01:58;6.03;;;2.83;;
59846;SDS011;45728;48.788;2.302;2023-04-24T03:04:24;9.88;;;3.55;;
59846;SDS011;45728;48.788;2.302;2023-04-24T03:06:51;8.38;;;2.67;;
59846;SDS011;45728;48.788;2.302;2023-04-24T03:09:20;10.10;;;3.30;;
59846;SDS011;45728;48.788;2.302;2023-04-24T03:11:46;7.25;;;3.15;;
59846;SDS011;45728;48.788;2.302;2023-04-24T03:14:14;8.05;;;2.72;;
59846;SDS011;45728;48.788;2.302;2023-04-24T03:16:40;6.53;;;2.90;;
59846;SDS011;45728;48.788;2.302;2023-04-24T03:19:06;6.50;;;2.72;;
59846;SDS011;45728;48.788;2.302;2023-04-24T03:21:32;8.68;;;3.00;;
59846;SDS011;45728;48.788;2.302;2023-04-24T03:26:44;6.28;;;3.38;;
59846;SDS011;45728;48.788;2.302;2023-04-24T03:29:10;7.63;;;3.08;;
59846;SDS011;45728;48.788;2.302;2023-04-24T03:31:36;6.95;;;3.22;;
59846;SDS011;45728;48.788;2.302;2023-04-24T03:34:02;7.93;;;3.22;;
59846;SDS011;45728;48.788;2.302;2023-04-24T03:36:28;7.70;;;3.10;;
59846;SDS011;45728;48.788;2.302;2023-04-24T03:38:54;6.88;;;3.33;;
59846;SDS011;45728;48.788;2.302;2023-04-24T03:41:20;9.73;;;3.30;;
59846;SDS011;45728;48.788;2.302;2023-04-24T03:43:47;8.82;;;3.08;;
59846;SDS011;45728;48.788;2.302;2023-04-24T03:46:13;7.53;;;3.08;;
59846;SDS011;45728;48.788;2.302;2023-04-24T03:48:39;7.88;;;3.35;;
59846;SDS011;45728;48.788;2.302;2023-04-24T03:51:05;9.13;;;3.42;;
59846;SDS011;45728;48.788;2.302;2023-04-24T03:53:31;8.55;;;3.25;;
59846;SDS011;45728;48.788;2.302;2023-04-24T03:55:57;10.07;;;3.78;;
59846;SDS011;45728;48.788;2.302;2023-04-24T03:58:24;7.88;;;3.25;;
59846;SDS011;45728;48.788;2.302;2023-04-24T04:00:50;6.70;;;2.67;;
59846;SDS011;45728;48.788;2.302;2023-04-24T04:03:16;9.70;;;3.63;;
59846;SDS011;45728;48.788;2.302;2023-04-24T04:05:42;12.80;;;3.92;;
59846;SDS011;45728;48.788;2.302;2023-04-24T04:08:08;6.97;;;3.45;;
59846;SDS011;45728;48.788;2.302;2023-04-24T04:10:34;6.35;;;3.13;;
59846;SDS011;45728;48.788;2.302;2023-04-24T04:13:00;6.93;;;3.33;;
59846;SDS011;45728;48.788;2.302;2023-04-24T04:15:26;8.65;;;3.60;;
59846;SDS011;45728;48.788;2.302;2023-04-24T04:17:52;7.03;;;3.50;;
59846;SDS011;45728;48.788;2.302;2023-04-24T04:20:18;6.05;;;3.40;;
59846;SDS011;45728;48.788;2.302;2023-04-24T04:22:45;11.40;;;4.18;;
59846;SDS011;45728;48.788;2.302;2023-04-24T04:25:11;9.00;;;3.83;;
59846;SDS011;45728;48.788;2.302;2023-04-24T04:27:39;10.48;;;4.10;;
59846;SDS011;45728;48.788;2.302;2023-04-24T04:30:07;12.52;;;3.67;;
59846;SDS011;45728;48.788;2.302;2023-04-24T04:32:34;9.60;;;3.92;;
59846;SDS011;45728;48.788;2.302;2023-04-24T04:35:00;8.65;;;3.90;;
59846;SDS011;45728;48.788;2.302;2023-04-24T04:37:30;7.38;;;3.85;;
59846;SDS011;45728;48.788;2.302;2023-04-24T04:39:57;7.88;;;3.65;;
59846;SDS011;45728;48.788;2.302;2023-04-24T04:42:26;9.05;;;3.58;;
59846;SDS011;45728;48.788;2.302;2023-04-24T04:44:52;8.98;;;4.13;;
59846;SDS011;45728;48.788;2.302;2023-04-24T04:47:20;13.55;;;4.03;;
59846;SDS011;45728;48.788;2.302;2023-04-24T04:49:48;9.18;;;4.05;;
59846;SDS011;45728;48.788;2.302;2023-04-24T04:52:16;8.43;;;4.20;;
59846;SDS011;45728;48.788;2.302;2023-04-24T04:54:43;8.90;;;4.30;;
59846;SDS011;45728;48.788;2.302;2023-04-24T04:57:09;8.40;;;3.95;;
59846;SDS011;45728;48.788;2.302;2023-04-24T04:59:36;12.38;;;4.40;;
59846;SDS011;45728;48.788;2.302;2023-04-24T05:02:02;15.15;;;4.72;;
59846;SDS011;45728;48.788;2.302;2023-04-24T05:04:28;9.07;;;4.40;;
59846;SDS011;45728;48.788;2.302;2023-04-24T05:06:55;8.85;;;4.18;;
59846;SDS011;45728;48.788;2.302;2023-04-24T05:09:21;12.48;;;5.05;;
59846;SDS011;45728;48.788;2.302;2023-04-24T05:11:47;10.57;;;4.43;;
59846;SDS011;45728;48.788;2.302;2023-04-24T05:14:14;12.55;;;4.75;;
59846;SDS011;45728;48.788;2.302;2023-04-24T05:16:40;8.55;;;4.60;;
59846;SDS011;45728;48.788;2.302;2023-04-24T05:19:06;10.25;;;5.50;;
59846;SDS011;45728;48.788;2.302;2023-04-24T05:21:32;11.32;;;4.88;;
59846;SDS011;45728;48.788;2.302;2023-04-24T05:23:58;10.13;;;4.95;;
59846;SDS011;45728;48.788;2.302;2023-04-24T05:26:24;10.30;;;4.63;;
59846;SDS011;45728;48.788;2.302;2023-04-24T05:28:51;8.93;;;5.03;;
59846;SDS011;45728;48.788;2.302;2023-04-24T05:31:17;9.38;;;5.15;;
59846;SDS011;45728;48.788;2.302;2023-04-24T05:33:43;9.05;;;4.88;;
59846;SDS011;45728;48.788;2.302;2023-04-24T05:36:09;7.80;;;4.88;;
59846;SDS011;45728;48.788;2.302;2023-04-24T05:38:35;13.73;;;6.20;;
59846;SDS011;45728;48.788;2.302;2023-04-24T05:41:01;8.40;;;5.28;;
59846;SDS011;45728;48.788;2.302;2023-04-24T05:43:27;11.70;;;5.88;;
59846;SDS011;45728;48.788;2.302;2023-04-24T05:45:53;15.68;;;6.40;;
59846;SDS011;45728;48.788;2.302;2023-04-24T05:48:19;15.10;;;6.88;;
59846;SDS011;45728;48.788;2.302;2023-04-24T05:50:47;10.65;;;5.95;;
59846;SDS011;45728;48.788;2.302;2023-04-24T05:53:13;12.80;;;5.28;;
59846;SDS011;45728;48.788;2.302;2023-04-24T05:55:39;9.90;;;5.78;;
59846;SDS011;45728;48.788;2.302;2023-04-24T05:58:05;12.00;;;6.00;;
59846;SDS011;45728;48.788;2.302;2023-04-24T06:00:32;14.23;;;6.25;;
59846;SDS011;45728;48.788;2.302;2023-04-24T06:02:59;12.35;;;5.93;;
59846;SDS011;45728;48.788;2.302;2023-04-24T06:05:25;10.10;;;6.05;;
59846;SDS011;45728;48.788;2.302;2023-04-24T06:07:51;12.32;;;6.93;;
59846;SDS011;45728;48.788;2.302;2023-04-24T06:10:18;12.82;;;7.03;;
59846;SDS011;45728;48.788;2.302;2023-04-24T06:12:44;10.65;;;5.90;;
59846;SDS011;45728;48.788;2.302;2023-04-24T06:15:10;11.27;;;6.80;;
59846;SDS011;45728;48.788;2.302;2023-04-24T06:17:37;11.43;;;6.65;;
59846;SDS011;45728;48.788;2.302;2023-04-24T06:20:03;10.15;;;6.25;;
59846;SDS011;45728;48.788;2.302;2023-04-24T06:22:31;10.75;;;6.38;;
59846;SDS011;45728;48.788;2.302;2023-04-24T06:24:57;12.32;;;6.65;;
59846;SDS011;45728;48.788;2.302;2023-04-24T06:27:23;10.07;;;6.90;;
59846;SDS011;45728;48.788;2.302;2023-04-24T06:29:49;12.98;;;6.53;;
59846;SDS011;45728;48.788;2.302;2023-04-24T06:32:21;12.52;;;6.35;;
59846;SDS011;45728;48.788;2.302;2023-04-24T06:34:48;13.32;;;7.03;;
59846;SDS011;45728;48.788;2.302;2023-04-24T06:37:14;8.80;;;6.85;;
59846;SDS011;45728;48.788;2.302;2023-04-24T06:39:41;10.35;;;6.88;;
59846;SDS011;45728;48.788;2.302;2023-04-24T06:42:08;12.45;;;7.50;;
59846;SDS011;45728;48.788;2.302;2023-04-24T06:44:35;15.07;;;7.10;;
59846;SDS011;45728;48.788;2.302;2023-04-24T06:47:09;9.18;;;6.68;;
59846;SDS011;45728;48.788;2.302;2023-04-24T06:49:40;12.82;;;7.43;;
59846;SDS011;45728;48.788;2.302;2023-04-24T06:52:06;11.40;;;7.88;;
59846;SDS011;45728;48.788;2.302;2023-04-24T06:54:32;11.85;;;7.30;;
59846;SDS011;45728;48.788;2.302;2023-04-24T06:56:59;11.82;;;7.20;;
59846;SDS011;45728;48.788;2.302;2023-04-24T06:59:29;11.65;;;7.95;;
59846;SDS011;45728;48.788;2.302;2023-04-24T07:01:56;11.55;;;7.65;;
59846;SDS011;45728;48.788;2.302;2023-04-24T07:04:22;14.23;;;8.00;;
59846;SDS011;45728;48.788;2.302;2023-04-24T07:06:50;10.68;;;7.35;;
59846;SDS011;45728;48.788;2.302;2023-04-24T07:09:16;11.15;;;6.93;;
59846;SDS011;45728;48.788;2.302;2023-04-24T07:11:44;12.85;;;7.05;;
59846;SDS011;45728;48.788;2.302;2023-04-24T07:14:11;13.60;;;7.45;;
59846;SDS011;45728;48.788;2.302;2023-04-24T07:16:37;13.55;;;7.57;;
59846;SDS011;45728;48.788;2.302;2023-04-24T07:19:04;12.90;;;8.20;;
59846;SDS011;45728;48.788;2.302;2023-04-24T07:21:30;11.32;;;8.18;;
59846;SDS011;45728;48.788;2.302;2023-04-24T07:23:57;11.75;;;8.10;;
59846;SDS011;45728;48.788;2.302;2023-04-24T07:26:23;10.90;;;7.55;;
59846;SDS011;45728;48.788;2.302;2023-04-24T07:28:51;13.07;;;8.15;;
59846;SDS011;45728;48.788;2.302;2023-04-24T07:31:17;12.43;;;7.70;;
59846;SDS011;45728;48.788;2.302;2023-04-24T07:33:43;12.60;;;8.80;;
59846;SDS011;45728;48.788;2.302;2023-04-24T07:36:09;12.00;;;7.57;;
59846;SDS011;45728;48.788;2.302;2023-04-24T07:38:41;10.23;;;7.70;;
59846;SDS011;45728;48.788;2.302;2023-04-24T07:41:08;13.68;;;7.93;;
59846;SDS011;45728;48.788;2.302;2023-04-24T07:43:34;12.90;;;8.85;;
59846;SDS011;45728;48.788;2.302;2023-04-24T07:46:01;12.38;;;7.97;;
59846;SDS011;45728;48.788;2.302;2023-04-24T07:48:27;12.90;;;8.13;;
59846;SDS011;45728;48.788;2.302;2023-04-24T07:50:53;13.13;;;7.88;;
59846;SDS011;45728;48.788;2.302;2023-04-24T07:53:19;14.15;;;7.75;;
59846;SDS011;45728;48.788;2.302;2023-04-24T07:55:45;11.85;;;8.32;;
59846;SDS011;45728;48.788;2.302;2023-04-24T07:58:12;13.88;;;8.82;;
59846;SDS011;45728;48.788;2.302;2023-04-24T08:00:38;16.25;;;9.90;;
59846;SDS011;45728;48.788;2.302;2023-04-24T08:03:04;13.68;;;9.32;;
59846;SDS011;45728;48.788;2.302;2023-04-24T08:05:30;14.02;;;8.85;;
59846;SDS011;45728;48.788;2.302;2023-04-24T08:07:56;15.13;;;9.20;;
59846;SDS011;45728;48.788;2.302;2023-04-24T08:10:22;16.85;;;9.77;;
59846;SDS011;45728;48.788;2.302;2023-04-24T08:12:49;16.70;;;9.52;;
59846;SDS011;45728;48.788;2.302;2023-04-24T08:15:15;14.88;;;10.57;;
59846;SDS011;45728;48.788;2.302;2023-04-24T08:17:41;17.10;;;10.20;;
59846;SDS011;45728;48.788;2.302;2023-04-24T08:20:08;16.88;;;10.75;;
59846;SDS011;45728;48.788;2.302;2023-04-24T08:22:39;14.50;;;10.13;;
59846;SDS011;45728;48.788;2.302;2023-04-24T08:25:09;18.25;;;11.30;;
59846;SDS011;45728;48.788;2.302;2023-04-24T08:27:36;16.00;;;10.43;;
59846;SDS011;45728;48.788;2.302;2023-04-24T08:30:03;16.48;;;11.00;;
59846;SDS011;45728;48.788;2.302;2023-04-24T08:32:29;15.63;;;11.23;;
59846;SDS011;45728;48.788;2.302;2023-04-24T08:34:56;14.13;;;10.43;;
59846;SDS011;45728;48.788;2.302;2023-04-24T08:37:22;14.95;;;11.23;;
59846;SDS011;45728;48.788;2.302;2023-04-24T08:39:49;16.65;;;11.35;;
59846;SDS011;45728;48.788;2.302;2023-04-24T08:42:17;15.15;;;11.07;;
59846;SDS011;45728;48.788;2.302;2023-04-24T08:44:44;13.65;;;10.48;;
59846;SDS011;45728;48.788;2.302;2023-04-24T08:47:11;16.38;;;11.25;;
59846;SDS011;45728;48.788;2.302;2023-04-24T08:49:38;13.10;;;9.90;;
59846;SDS011;45728;48.788;2.302;2023-04-24T08:52:05;13.27;;;10.63;;
59846;SDS011;45728;48.788;2.302;2023-04-24T08:54:31;14.55;;;10.25;;
59846;SDS011;45728;48.788;2.302;2023-04-24T08:57:00;12.15;;;9.52;;
59846;SDS011;45728;48.788;2.302;2023-04-24T08:59:29;18.70;;;10.73;;
59846;SDS011;45728;48.788;2.302;2023-04-24T09:01:56;13.15;;;10.65;;
59846;SDS011;45728;48.788;2.302;2023-04-24T09:04:23;12.80;;;9.50;;
59846;SDS011;45728;48.788;2.302;2023-04-24T09:06:51;12.32;;;9.63;;
59846;SDS011;45728;48.788;2.302;2023-04-24T09:09:21;11.43;;;9.75;;
59846;SDS011;45728;48.788;2.302;2023-04-24T09:11:49;13.75;;;9.63;;
59846;SDS011;45728;48.788;2.302;2023-04-24T09:14:16;13.98;;;10.23;;
59846;SDS011;45728;48.788;2.302;2023-04-24T09:16:43;9.95;;;8.95;;
59846;SDS011;45728;48.788;2.302;2023-04-24T09:19:09;14.40;;;9.95;;
59846;SDS011;45728;48.788;2.302;2023-04-24T09:21:35;16.42;;;11.23;;
59846;SDS011;45728;48.788;2.302;2023-04-24T09:24:03;13.85;;;9.95;;
59846;SDS011;45728;48.788;2.302;2023-04-24T09:26:31;13.70;;;10.20;;
59846;SDS011;45728;48.788;2.302;2023-04-24T09:28:58;13.00;;;9.75;;
59846;SDS011;45728;48.788;2.302;2023-04-24T09:31:26;12.93;;;9.60;;
59846;SDS011;45728;48.788;2.302;2023-04-24T09:33:55;10.43;;;8.95;;
59846;SDS011;45728;48.788;2.302;2023-04-24T09:36:26;12.68;;;9.50;;
59846;SDS011;45728;48.788;2.302;2023-04-24T09:39:03;11.85;;;8.40;;
59846;SDS011;45728;48.788;2.302;2023-04-24T09:41:31;11.38;;;8.88;;
59846;SDS011;45728;48.788;2.302;2023-04-24T09:44:11;13.23;;;9.13;;
59846;SDS011;45728;48.788;2.302;2023-04-24T09:46:38;14.90;;;9.00;;
59846;SDS011;45728;48.788;2.302;2023-04-24T09:49:14;12.52;;;8.45;;
59846;SDS011;45728;48.788;2.302;2023-04-24T09:51:41;10.70;;;8.80;;
59846;SDS011;45728;48.788;2.302;2023-04-24T09:54:15;12.95;;;8.88;;
59846;SDS011;45728;48.788;2.302;2023-04-24T09:56:44;8.80;;;7.80;;
59846;SDS011;45728;48.788;2.302;2023-04-24T09:59:12;12.27;;;8.20;;
59846;SDS011;45728;48.788;2.302;2023-04-24T10:01:39;11.90;;;8.90;;
59846;SDS011;45728;48.788;2.302;2023-04-24T10:04:20;13.45;;;9.27;;
59846;SDS011;45728;48.788;2.302;2023-04-24T10:06:49;11.15;;;8.18;;
59846;SDS011;45728;48.788;2.302;2023-04-24T10:09:16;11.32;;;8.35;;
59846;SDS011;45728;48.788;2.302;2023-04-24T10:11:45;10.85;;;7.75;;
59846;SDS011;45728;48.788;2.302;2023-04-24T10:14:19;11.48;;;8.75;;
59846;SDS011;45728;48.788;2.302;2023-04-24T10:16:47;11.65;;;8.73;;
59846;SDS011;45728;48.788;2.302;2023-04-24T10:19:14;10.77;;;8.98;;
59846;SDS011;45728;48.788;2.302;2023-04-24T10:21:41;11.93;;;8.80;;
59846;SDS011;45728;48.788;2.302;2023-04-24T10:24:12;10.50;;;8.05;;
59846;SDS011;45728;48.788;2.302;2023-04-24T10:26:40;9.98;;;8.10;;
59846;SDS011;45728;48.788;2.302;2023-04-24T10:29:06;9.75;;;8.27;;
59846;SDS011;45728;48.788;2.302;2023-04-24T10:31:37;11.38;;;7.88;;
59846;SDS011;45728;48.788;2.302;2023-04-24T10:34:04;13.57;;;7.57;;
59846;SDS011;45728;48.788;2.302;2023-04-24T10:36:32;8.52;;;6.72;;
59846;SDS011;45728;48.788;2.302;2023-04-24T10:39:00;7.90;;;6.60;;
59846;SDS011;45728;48.788;2.302;2023-04-24T10:41:30;11.20;;;7.00;;
59846;SDS011;45728;48.788;2.302;2023-04-24T10:46:35;8.05;;;6.30;;
59846;SDS011;45728;48.788;2.302;2023-04-24T10:49:05;9.55;;;6.35;;
59846;SDS011;45728;48.788;2.302;2023-04-24T10:51:47;8.77;;;6.72;;
59846;SDS011;45728;48.788;2.302;2023-04-24T10:54:48;8.95;;;6.97;;
59846;SDS011;45728;48.788;2.302;2023-04-24T10:59:47;7.85;;;6.80;;
59846;SDS011;45728;48.788;2.302;2023-04-24T11:02:15;9.00;;;6.13;;
59846;SDS011;45728;48.788;2.302;2023-04-24T11:04:41;8.40;;;6.05;;
59846;SDS011;45728;48.788;2.302;2023-04-24T11:07:08;7.55;;;6.20;;
59846;SDS011;45728;48.788;2.302;2023-04-24T11:09:36;9.38;;;6.40;;
59846;SDS011;45728;48.788;2.302;2023-04-24T11:12:03;8.80;;;6.57;;
59846;SDS011;45728;48.788;2.302;2023-04-24T11:20:05;7.93;;;5.85;;
59846;SDS011;45728;48.788;2.302;2023-04-24T11:22:33;7.68;;;6.88;;
59846;SDS011;45728;48.788;2.302;2023-04-24T11:25:02;10.18;;;6.78;;
59846;SDS011;45728;48.788;2.302;2023-04-24T11:27:29;7.53;;;5.97;;
59846;SDS011;45728;48.788;2.302;2023-04-24T11:32:28;7.45;;;6.18;;
59846;SDS011;45728;48.788;2.302;2023-04-24T11:35:05;6.22;;;5.50;;
59846;SDS011;45728;48.788;2.302;2023-04-24T11:37:45;7.72;;;5.90;;
59846;SDS011;45728;48.788;2.302;2023-04-24T11:40:16;6.95;;;5.45;;
59846;SDS011;45728;48.788;2.302;2023-04-24T11:42:51;6.90;;;5.32;;
59846;SDS011;45728;48.788;2.302;2023-04-24T11:45:21;6.68;;;5.25;;
59846;SDS011;45728;48.788;2.302;2023-04-24T11:47:48;8.00;;;5.22;;
59846;SDS011;45728;48.788;2.302;2023-04-24T11:50:16;5.57;;;4.72;;
59846;SDS011;45728;48.788;2.302;2023-04-24T11:52:44;8.93;;;5.37;;
59846;SDS011;45728;48.788;2.302;2023-04-24T11:57:45;6.07;;;4.47;;
59846;SDS011;45728;48.788;2.302;2023-04-24T12:03:11;5.60;;;4.47;;
59846;SDS011;45728;48.788;2.302;2023-04-24T12:05:38;5.03;;;4.25;;
59846;SDS011;45728;48.788;2.302;2023-04-24T12:08:05;4.80;;;4.30;;
59846;SDS011;45728;48.788;2.302;2023-04-24T12:10:32;6.97;;;4.18;;
59846;SDS011;45728;48.788;2.302;2023-04-24T12:13:00;5.20;;;4.05;;
59846;SDS011;45728;48.788;2.302;2023-04-24T12:15:26;5.50;;;3.50;;
59846;SDS011;45728;48.788;2.302;2023-04-24T12:17:53;5.93;;;3.70;;
59846;SDS011;45728;48.788;2.302;2023-04-24T12:20:38;5.57;;;3.55;;
59846;SDS011;45728;48.788;2.302;2023-04-24T12:23:06;5.80;;;3.35;;
59846;SDS011;45728;48.788;2.302;2023-04-24T12:25:32;4.65;;;3.08;;
59846;SDS011;45728;48.788;2.302;2023-04-24T12:30:32;4.35;;;3.17;;
59846;SDS011;45728;48.788;2.302;2023-04-24T12:32:58;5.32;;;3.55;;
59846;SDS011;45728;48.788;2.302;2023-04-24T12:35:27;4.82;;;3.22;;
59846;SDS011;45728;48.788;2.302;2023-04-24T12:37:54;3.85;;;3.10;;
59846;SDS011;45728;48.788;2.302;2023-04-24T12:40:21;6.75;;;3.03;;
59846;SDS011;45728;48.788;2.302;2023-04-24T12:45:17;4.60;;;3.65;;
59846;SDS011;45728;48.788;2.302;2023-04-24T12:47:44;6.43;;;3.33;;
59846;SDS011;45728;48.788;2.302;2023-04-24T12:50:14;4.18;;;2.95;;
59846;SDS011;45728;48.788;2.302;2023-04-24T12:52:41;5.47;;;3.20;;
59846;SDS011;45728;48.788;2.302;2023-04-24T12:55:08;4.45;;;3.38;;
59846;SDS011;45728;48.788;2.302;2023-04-24T12:57:35;5.75;;;3.30;;
59846;SDS011;45728;48.788;2.302;2023-04-24T13:00:03;6.57;;;2.85;;
59846;SDS011;45728;48.788;2.302;2023-04-24T13:02:30;5.15;;;3.00;;
59846;SDS011;45728;48.788;2.302;2023-04-24T13:04:57;5.78;;;2.63;;
59846;SDS011;45728;48.788;2.302;2023-04-24T13:07:24;6.18;;;2.88;;
59846;SDS011;45728;48.788;2.302;2023-04-24T13:09:51;4.00;;;2.28;;
59846;SDS011;45728;48.788;2.302;2023-04-24T13:12:18;5.05;;;2.58;;
59846;SDS011;45728;48.788;2.302;2023-04-24T13:14:45;7.38;;;2.40;;
59846;SDS011;45728;48.788;2.302;2023-04-24T13:17:11;4.32;;;2.35;;
59846;SDS011;45728;48.788;2.302;2023-04-24T13:19:39;3.42;;;2.33;;
59846;SDS011;45728;48.788;2.302;2023-04-24T13:22:08;4.38;;;2.47;;
59846;SDS011;45728;48.788;2.302;2023-04-24T13:24:35;4.22;;;2.60;;
59846;SDS011;45728;48.788;2.302;2023-04-24T13:27:03;4.75;;;2.65;;
59846;SDS011;45728;48.788;2.302;2023-04-24T13:29:29;4.65;;;2.50;;
59846;SDS011;45728;48.788;2.302;2023-04-24T13:31:55;3.28;;;2.22;;
59846;SDS011;45728;48.788;2.302;2023-04-24T13:34:25;2.85;;;2.10;;
59846;SDS011;45728;48.788;2.302;2023-04-24T13:39:18;3.60;;;2.00;;
59846;SDS011;45728;48.788;2.302;2023-04-24T13:41:44;4.47;;;2.45;;
59846;SDS011;45728;48.788;2.302;2023-04-24T13:44:12;8.10;;;2.30;;
59846;SDS011;45728;48.788;2.302;2023-04-24T13:46:38;5.88;;;2.55;;
59846;SDS011;45728;48.788;2.302;2023-04-24T13:49:04;3.60;;;1.88;;
59846;SDS011;45728;48.788;2.302;2023-04-24T13:51:30;3.33;;;2.33;;
59846;SDS011;45728;48.788;2.302;2023-04-24T13:53:57;5.25;;;2.03;;
59846;SDS011;45728;48.788;2.302;2023-04-24T13:56:23;2.78;;;1.77;;
59846;SDS011;45728;48.788;2.302;2023-04-24T13:58:49;1.70;;;1.60;;
59846;SDS011;45728;48.788;2.302;2023-04-24T14:01:15;2.38;;;1.40;;
59846;SDS011;45728;48.788;2.302;2023-04-24T14:03:42;3.20;;;1.50;;
59846;SDS011;45728;48.788;2.302;2023-04-24T14:08:56;1.98;;;1.48;;
59846;SDS011;45728;48.788;2.302;2023-04-24T14:11:22;2.28;;;1.40;;
59846;SDS011;45728;48.788;2.302;2023-04-24T14:13:49;2.88;;;1.60;;
59846;SDS011;45728;48.788;2.302;2023-04-24T14:16:15;2.55;;;1.52;;
59846;SDS011;45728;48.788;2.302;2023-04-24T14:18:41;2.25;;;1.50;;
59846;SDS011;45728;48.788;2.302;2023-04-24T14:21:07;2.78;;;1.42;;
59846;SDS011;45728;48.788;2.302;2023-04-24T14:23:33;5.75;;;1.98;;
59846;SDS011;45728;48.788;2.302;2023-04-24T14:25:59;3.22;;;1.67;;
59846;SDS011;45728;48.788;2.302;2023-04-24T14:28:26;3.40;;;1.55;;
59846;SDS011;45728;48.788;2.302;2023-04-24T14:30:52;2.05;;;1.50;;
59846;SDS011;45728;48.788;2.302;2023-04-24T14:33:18;2.78;;;1.50;;
59846;SDS011;45728;48.788;2.302;2023-04-24T14:35:44;2.85;;;1.63;;
59846;SDS011;45728;48.788;2.302;2023-04-24T14:38:11;3.45;;;1.67;;
59846;SDS011;45728;48.788;2.302;2023-04-24T14:40:37;3.17;;;1.88;;
59846;SDS011;45728;48.788;2.302;2023-04-24T14:43:03;2.92;;;1.67;;
59846;SDS011;45728;48.788;2.302;2023-04-24T14:45:30;3.35;;;1.83;;
59846;SDS011;45728;48.788;2.302;2023-04-24T14:47:56;2.88;;;1.83;;
59846;SDS011;45728;48.788;2.302;2023-04-24T14:50:23;2.55;;;1.92;;
59846;SDS011;45728;48.788;2.302;2023-04-24T14:52:53;5.28;;;1.92;;
59846;SDS011;45728;48.788;2.302;2023-04-24T14:55:23;3.22;;;2.10;;
59846;SDS011;45728;48.788;2.302;2023-04-24T14:57:49;4.43;;;2.30;;
59846;SDS011;45728;48.788;2.302;2023-04-24T15:00:16;3.13;;;1.88;;
59846;SDS011;45728;48.788;2.302;2023-04-24T15:02:42;3.53;;;1.95;;
59846;SDS011;45728;48.788;2.302;2023-04-24T15:05:10;3.67;;;2.10;;
59846;SDS011;45728;48.788;2.302;2023-04-24T15:07:37;4.30;;;2.10;;
59846;SDS011;45728;48.788;2.302;2023-04-24T15:10:04;2.28;;;1.77;;
59846;SDS011;45728;48.788;2.302;2023-04-24T15:12:30;4.03;;;2.20;;
59846;SDS011;45728;48.788;2.302;2023-04-24T15:14:57;2.50;;;1.75;;